Time;durP1;ratioP1;P1;durP2;ratioP2;P2;SDS_P1;SDS_P2;PMS_P1;PMS_P2;Temp;Humidity;BMP_temperature;BMP_pressure;BME280_temperature;BME280_humidity;BME280_pressure;Samples;Min_cycle;Max_cycle;Signal;HPM_P1;HPM_P2
2023/04/22 06:54:22;;;;;;;5.03;2.80;;;;;;;11.58;75.59;95992.72;2107202;27;20893;-61
2023/04/22 06:56:51;;;;;;;4.68;2.78;;;;;;;11.75;73.77;95987.28;2082734;28;20556;-61
2023/04/22 07:03:05;;;;;;;3.13;2.30;;;;;;;12.13;72.85;95975.47;2092086;28;21074;-61
2023/04/22 07:05:47;;;;;;;3.50;2.15;;;;;;;12.39;70.69;95981.72;2080641;28;20949;-61
2023/04/22 07:08:18;;;;;;;3.60;2.47;;;;;;;12.41;69.67;95974.59;2083347;28;20912;-61
2023/04/22 07:10:47;;;;;;;4.40;2.20;;;;;;;12.53;69.81;95980.84;2083091;28;20569;-61
2023/04/22 07:13:19;;;;;;;2.47;1.80;;;;;;;12.73;68.62;95966.50;2101408;27;20542;-61
2023/04/22 07:14:20;;;;;;;4.00;2.20;;;;;;;12.94;68.88;95971.28;2098231;28;20219;-61
2023/04/22 07:15:22;;;;;;;4.05;2.05;;;;;;;13.06;68.29;95974.88;2094571;28;20646;-61
2023/04/22 07:17:44;;;;;;;3.22;1.88;;;;;;;13.25;68.33;95979.75;2084425;28;20573;-61
2023/04/22 07:18:45;;;;;;;3.45;1.77;;;;;;;13.46;67.74;95977.53;2080860;28;20201;-62
2023/04/22 07:19:47;;;;;;;7.00;2.30;;;;;;;13.49;67.36;95974.69;2078489;28;20292;-61
2023/04/22 07:22:14;;;;;;;2.88;1.70;;;;;;;13.57;68.70;95963.66;2099897;27;20566;-61
2023/04/22 07:23:16;;;;;;;3.40;1.65;;;;;;;13.71;68.17;95976.72;2095546;28;20195;-61
2023/04/22 07:24:17;;;;;;;3.50;1.92;;;;;;;13.79;68.97;95977.97;2096555;28;20857;-61
2023/04/22 07:25:18;;;;;;;3.05;1.80;;;;;;;13.75;67.42;95976.50;2093491;28;20200;-61
2023/04/22 07:26:20;;;;;;;4.00;1.92;;;;;;;13.73;65.32;95973.97;2090584;28;20211;-61
2023/04/22 07:28:42;;;;;;;3.63;2.00;;;;;;;13.72;66.27;95977.53;2082219;28;20571;-61
2023/04/22 07:29:43;;;;;;;4.32;1.92;;;;;;;13.92;65.11;95980.59;2075157;28;20197;-62
2023/04/22 07:32:04;;;;;;;3.30;2.22;;;;;;;13.85;66.37;95980.16;2101016;27;20576;-61
2023/04/22 07:33:05;;;;;;;4.93;1.90;;;;;;;13.94;65.99;95989.19;2094906;28;20195;-61
2023/04/22 07:34:09;;;;;;;3.28;2.20;;;;;;;13.87;66.62;95992.25;2094587;28;20628;-61
2023/04/22 07:35:10;;;;;;;5.90;1.88;;;;;;;13.86;67.47;95993.22;2101972;28;20199;-61
2023/04/22 07:36:12;;;;;;;6.03;2.30;;;;;;;13.82;68.05;95991.72;2095500;28;20223;-62
2023/04/22 07:37:13;;;;;;;8.98;2.40;;;;;;;13.71;68.17;95983.72;2095384;28;20602;-61
2023/04/22 07:38:15;;;;;;;4.28;2.85;;;;;;;13.82;68.52;95983.84;2084896;28;20193;-61
2023/04/22 07:39:16;;;;;;;4.25;2.65;;;;;;;13.79;67.77;95997.19;2086057;28;20199;-62
2023/04/22 07:40:18;;;;;;;4.25;2.05;;;;;;;13.61;66.44;95991.41;2094445;28;20659;-62
2023/04/22 07:41:19;;;;;;;4.43;2.03;;;;;;;13.85;67.65;95991.53;2095478;28;20664;-62
2023/04/22 07:42:21;;;;;;;5.43;2.30;;;;;;;13.92;66.74;95996.34;2094964;28;20204;-62
2023/04/22 07:43:22;;;;;;;2.90;2.00;;;;;;;13.97;65.48;95992.47;2095433;28;20207;-62
2023/04/22 07:44:24;;;;;;;4.47;1.95;;;;;;;13.97;64.86;95989.84;2095468;28;20200;-62
2023/04/22 07:45:25;;;;;;;2.80;1.70;;;;;;;13.82;65.66;95988.25;2094968;28;20607;-62
2023/04/22 07:46:27;;;;;;;4.63;2.00;;;;;;;13.92;66.73;95999.81;2095431;28;20654;-62
2023/04/22 07:47:28;;;;;;;3.33;2.05;;;;;;;13.96;66.68;96003.06;2095390;28;20200;-62
2023/04/22 07:48:30;;;;;;;3.40;2.25;;;;;;;13.86;66.21;95998.47;2095057;28;20196;-62
2023/04/22 07:49:31;;;;;;;4.30;1.80;;;;;;;13.87;64.30;95997.50;2095401;28;20242;-62
2023/04/22 07:50:33;;;;;;;4.65;1.90;;;;;;;13.85;65.55;96002.03;2094701;28;20223;-62
2023/04/22 07:51:36;;;;;;;3.15;1.58;;;;;;;13.76;65.25;95997.38;2095233;28;20777;-62
2023/04/22 07:52:37;;;;;;;4.85;1.80;;;;;;;13.71;66.38;96004.72;2094790;28;20195;-62
2023/04/22 07:53:39;;;;;;;2.03;1.73;;;;;;;13.65;64.13;96005.13;2095273;28;20671;-61
2023/04/22 07:54:40;;;;;;;3.67;1.58;;;;;;;13.48;63.79;95993.97;2094799;28;20196;-62
2023/04/22 07:55:42;;;;;;;4.43;1.90;;;;;;;13.43;64.60;95998.69;2093262;28;20230;-63
2023/04/22 07:56:43;;;;;;;3.30;2.30;;;;;;;13.39;64.26;95984.97;2095033;28;20202;-61
2023/04/22 07:57:44;;;;;;;2.55;1.77;;;;;;;13.38;62.98;95998.16;2095058;28;20191;-63
2023/04/22 07:58:46;;;;;;;2.15;1.52;;;;;;;13.35;63.65;95999.16;2094152;28;20196;-62
2023/04/22 07:59:48;;;;;;;2.20;1.40;;;;;;;13.35;63.83;96000.97;2095216;28;20196;-62
2023/04/22 08:00:50;;;;;;;2.85;1.50;;;;;;;13.46;62.90;95998.50;2094734;28;20226;-62
2023/04/22 08:01:51;;;;;;;3.10;1.50;;;;;;;13.45;63.38;95986.34;2095380;28;20188;-62
2023/04/22 08:02:53;;;;;;;3.50;1.40;;;;;;;13.60;62.50;95999.34;2094889;28;20687;-63
2023/04/22 08:03:55;;;;;;;7.78;1.95;;;;;;;13.80;62.70;96001.50;2095273;28;20211;-62
2023/04/22 08:04:57;;;;;;;4.97;1.48;;;;;;;13.82;61.87;95996.97;2094787;28;20191;-63
2023/04/22 08:05:58;;;;;;;2.88;1.52;;;;;;;14.13;62.43;95996.66;2092194;28;20216;-63
2023/04/22 08:07:02;;;;;;;5.63;1.55;;;;;;;14.32;62.00;95998.81;2094947;28;20681;-63
2023/04/22 08:08:17;;;;;;;2.35;1.40;;;;;;;14.47;59.36;95996.91;2094178;28;20546;-63
2023/04/22 08:09:19;;;;;;;1.85;1.30;;;;;;;14.88;58.77;95992.31;2094388;28;20192;-62
2023/04/22 08:10:21;;;;;;;3.33;1.25;;;;;;;15.13;58.35;95991.38;2094265;28;20198;-62
2023/04/22 08:11:22;;;;;;;2.28;1.40;;;;;;;15.05;57.96;95999.00;2094577;28;20220;-63
2023/04/22 08:12:24;;;;;;;4.35;1.63;;;;;;;15.35;57.83;95991.47;2094930;28;20763;-63
2023/04/22 08:13:25;;;;;;;3.17;1.67;;;;;;;15.64;57.03;95996.34;2093069;28;20207;-63
2023/04/22 08:14:27;;;;;;;3.78;1.30;;;;;;;15.80;55.41;95990.72;2085469;28;20326;-63
2023/04/22 08:15:29;;;;;;;3.60;1.15;;;;;;;15.97;53.67;95991.28;2084999;28;20231;-63
2023/04/22 08:16:31;;;;;;;2.67;1.40;;;;;;;15.90;54.16;95985.66;2094802;28;20196;-63
2023/04/22 08:17:32;;;;;;;3.58;1.50;;;;;;;15.93;55.24;95987.22;2094781;28;20262;-63
2023/04/22 08:18:34;;;;;;;3.53;1.58;;;;;;;15.97;54.00;95986.00;2092426;28;20196;-62
2023/04/22 08:19:35;;;;;;;2.47;1.27;;;;;;;15.87;53.98;95992.94;2094921;28;20535;-63
2023/04/22 08:20:37;;;;;;;2.50;1.35;;;;;;;16.00;55.51;95993.69;2092930;28;20220;-63
2023/04/22 08:21:39;;;;;;;4.10;1.27;;;;;;;16.10;54.60;95992.00;2095137;28;20207;-63
2023/04/22 08:22:41;;;;;;;3.10;1.35;;;;;;;15.80;52.60;95984.66;2085527;28;20284;-62
2023/04/22 08:23:43;;;;;;;1.77;1.02;;;;;;;15.77;53.65;95988.34;2085981;28;20710;-62
2023/04/22 08:24:44;;;;;;;2.42;1.20;;;;;;;15.70;54.55;95983.66;2095138;28;20706;-62
2023/04/22 08:25:46;;;;;;;3.97;1.80;;;;;;;15.85;54.92;95985.16;2094235;28;20255;-62
2023/04/22 08:26:48;;;;;;;6.43;1.60;;;;;;;15.82;55.15;95978.34;2094936;28;20231;-62
2023/04/22 08:27:50;;;;;;;1.77;1.30;;;;;;;15.98;54.09;95982.41;2094159;28;20781;-63
2023/04/22 08:28:52;;;;;;;2.55;1.20;;;;;;;16.15;52.68;95989.88;2094287;28;20192;-62
2023/04/22 08:29:53;;;;;;;3.17;1.10;;;;;;;15.94;53.61;95978.34;2095131;28;20635;-62
2023/04/22 08:30:54;;;;;;;3.95;1.08;;;;;;;15.98;54.41;95980.63;2093766;28;20578;-62
2023/04/22 08:31:56;;;;;;;3.63;1.20;;;;;;;16.16;54.46;95985.41;2094603;28;20753;-63
2023/04/22 08:32:57;;;;;;;3.55;1.30;;;;;;;16.18;54.56;95978.25;2093361;28;20196;-62
2023/04/22 08:33:59;;;;;;;1.83;1.10;;;;;;;16.39;53.18;95973.09;2094925;28;20632;-62
2023/04/22 08:35:01;;;;;;;2.25;1.35;;;;;;;16.63;52.64;95985.28;2093704;28;20243;-62
2023/04/22 08:36:07;;;;;;;7.25;1.30;;;;;;;16.70;53.32;95972.47;2093854;28;20230;-63
2023/04/22 08:37:09;;;;;;;1.48;0.93;;;;;;;16.86;54.07;95974.69;2094755;28;20544;-63
2023/04/22 08:38:10;;;;;;;1.73;1.33;;;;;;;16.96;52.56;95973.00;2094856;28;20264;-63
2023/04/22 08:39:11;;;;;;;1.95;1.27;;;;;;;16.91;53.15;95973.41;2086181;28;20211;-62
2023/04/22 08:40:13;;;;;;;4.35;1.17;;;;;;;17.15;53.61;95977.63;2085499;28;20237;-63
2023/04/22 08:41:20;;;;;;;3.08;1.08;;;;;;;17.17;52.65;95974.88;2094853;28;20244;-63
2023/04/22 08:42:22;;;;;;;4.22;1.00;;;;;;;17.12;51.79;95967.34;2085883;28;20255;-63
2023/04/22 08:43:26;;;;;;;3.78;1.20;;;;;;;17.43;52.77;95973.56;2072430;28;20248;-62
2023/04/22 08:44:28;;;;;;;2.95;1.35;;;;;;;17.49;52.49;95971.38;2081007;28;20200;-63
2023/04/22 08:45:30;;;;;;;3.60;1.30;;;;;;;17.67;52.50;95976.91;2078441;28;20271;-63
2023/04/22 08:46:32;;;;;;;1.95;1.23;;;;;;;17.52;52.89;95956.13;2080607;28;20201;-62
2023/04/22 08:47:36;;;;;;;2.03;1.20;;;;;;;17.79;52.26;95976.72;2089047;28;20642;-63
2023/04/22 08:48:37;;;;;;;4.25;1.20;;;;;;;17.68;50.87;95984.72;2088074;28;20239;-63
2023/04/22 08:49:39;;;;;;;2.50;0.98;;;;;;;17.62;52.42;95975.50;2089255;28;20239;-63
2023/04/22 08:50:41;;;;;;;4.70;1.45;;;;;;;17.84;52.57;95972.84;2088018;28;20220;-63
2023/04/22 08:51:43;;;;;;;5.13;1.23;;;;;;;17.81;51.98;95983.69;2089151;28;20196;-63
2023/04/22 08:52:45;;;;;;;3.55;1.70;;;;;;;17.91;50.35;95976.66;2088351;28;20210;-63
2023/04/22 08:53:47;;;;;;;1.85;1.13;;;;;;;17.71;52.00;95958.06;2087810;28;20250;-63
2023/04/22 08:54:48;;;;;;;2.85;1.20;;;;;;;18.03;51.60;95965.09;2088624;28;20196;-63
2023/04/22 08:55:50;;;;;;;1.85;1.20;;;;;;;18.22;51.12;95977.53;2088519;28;20216;-63
2023/04/22 08:56:52;;;;;;;2.95;1.80;;;;;;;18.04;50.20;95974.69;2089276;28;20212;-63
2023/04/22 08:57:54;;;;;;;4.15;1.20;;;;;;;17.94;49.80;95979.06;2089418;28;20200;-63
2023/04/22 08:58:56;;;;;;;3.45;1.10;;;;;;;17.67;49.32;95974.28;2089299;28;20314;-62
2023/04/22 08:59:58;;;;;;;2.28;0.98;;;;;;;17.63;50.28;95981.63;2087520;28;20832;-63
2023/04/22 09:01:01;;;;;;;2.90;1.30;;;;;;;17.46;50.38;95985.69;2088513;28;20713;-62
2023/04/22 09:02:05;;;;;;;1.67;1.10;;;;;;;17.68;51.06;95975.97;2089135;28;20858;-63
2023/04/22 09:03:07;;;;;;;3.08;1.42;;;;;;;17.60;49.65;95966.88;2089344;28;20849;-63
2023/04/22 09:04:10;;;;;;;3.63;1.33;;;;;;;17.78;50.97;95963.66;2089275;28;20207;-63
2023/04/22 09:05:13;;;;;;;3.70;1.27;;;;;;;18.21;49.69;95973.22;2088957;28;20238;-63
2023/04/22 09:06:18;;;;;;;2.40;1.20;;;;;;;18.36;50.20;95968.44;2088619;28;20211;-63
2023/04/22 09:07:26;;;;;;;2.17;1.08;;;;;;;18.40;50.38;95966.34;2088714;28;20192;-63
2023/04/22 09:08:28;;;;;;;2.70;1.40;;;;;;;18.37;51.19;95970.09;2088460;28;20287;-63
2023/04/22 09:09:30;;;;;;;1.95;1.25;;;;;;;18.49;50.19;95970.00;2088933;28;20196;-63
2023/04/22 09:10:36;;;;;;;4.82;1.30;;;;;;;18.49;50.51;95970.81;2088509;28;20311;-63
2023/04/22 09:11:38;;;;;;;4.40;1.40;;;;;;;18.36;49.80;95959.63;2089170;28;20205;-62
2023/04/22 09:12:40;;;;;;;1.77;1.20;;;;;;;18.43;49.91;95963.44;2088659;28;20212;-62
2023/04/22 09:13:42;;;;;;;3.15;0.90;;;;;;;18.46;49.76;95962.31;2089196;28;20193;-62
2023/04/22 09:14:44;;;;;;;2.10;1.10;;;;;;;18.37;48.38;95954.25;2087078;28;20200;-63
2023/04/22 09:15:46;;;;;;;2.40;1.30;;;;;;;18.24;48.48;95956.25;2088423;28;20620;-62
2023/04/22 09:16:48;;;;;;;3.20;1.05;;;;;;;18.16;50.03;95966.69;2088827;28;20207;-62
2023/04/22 09:17:51;;;;;;;2.78;1.40;;;;;;;18.34;49.28;95959.78;2088911;28;20288;-61
2023/04/22 09:18:52;;;;;;;1.80;1.20;;;;;;;18.34;48.03;95956.31;2075319;28;20779;-61
2023/04/22 09:19:59;;;;;;;2.65;1.60;;;;;;;18.37;48.98;95956.88;2076363;28;20197;-61
2023/04/22 09:21:00;;;;;;;6.13;1.25;;;;;;;18.21;48.24;95960.00;2088301;28;20244;-61
2023/04/22 09:22:02;;;;;;;3.05;1.30;;;;;;;18.19;49.05;95958.47;2088967;28;20203;-61
2023/04/22 09:23:03;;;;;;;1.80;1.00;;;;;;;18.09;48.59;95966.34;2089175;28;20189;-61
2023/04/22 09:24:07;;;;;;;1.80;1.00;;;;;;;18.24;47.28;95959.72;2088493;28;20219;-61
2023/04/22 09:25:22;;;;;;;4.55;1.20;;;;;;;18.44;48.44;95963.28;2088522;28;20559;-62
2023/04/22 09:26:25;;;;;;;2.70;1.15;;;;;;;18.41;48.29;95954.78;2088627;28;20669;-61
2023/04/22 09:27:27;;;;;;;3.92;1.10;;;;;;;18.33;48.77;95952.00;2076617;28;20263;-61
2023/04/22 09:28:28;;;;;;;5.40;1.30;;;;;;;18.43;48.61;95958.16;2074926;28;20201;-61
2023/04/22 09:29:30;;;;;;;3.92;1.50;;;;;;;18.50;48.85;95954.00;2087964;28;20201;-61
2023/04/22 09:30:35;;;;;;;2.38;1.23;;;;;;;18.86;47.51;95948.25;2088323;28;20235;-61
2023/04/22 09:31:36;;;;;;;3.53;1.33;;;;;;;18.98;48.66;95952.47;2088680;28;20232;-61
2023/04/22 09:32:38;;;;;;;2.35;1.30;;;;;;;19.21;47.07;95958.31;2078868;28;21112;-62
2023/04/22 09:33:40;;;;;;;6.90;1.67;;;;;;;19.04;47.56;95951.06;2080563;28;20200;-61
2023/04/22 09:34:48;;;;;;;4.80;1.30;;;;;;;19.28;48.02;95948.00;2088670;28;20196;-61
2023/04/22 09:35:49;;;;;;;2.20;1.00;;;;;;;19.12;46.46;95947.72;2088155;28;20216;-61
2023/04/22 09:36:51;;;;;;;1.95;1.30;;;;;;;18.99;47.34;95934.78;2089304;28;20196;-61
2023/04/22 09:37:52;;;;;;;5.38;1.25;;;;;;;19.21;47.77;95952.19;2089295;28;20235;-61
2023/04/22 09:38:54;;;;;;;1.75;1.10;;;;;;;19.02;48.69;95940.63;2080258;28;20274;-62
2023/04/22 09:39:55;;;;;;;2.55;1.27;;;;;;;18.85;48.51;95951.84;2080571;28;20639;-61
2023/04/22 09:40:57;;;;;;;2.08;0.93;;;;;;;19.20;47.81;95954.00;2086980;28;20216;-61
2023/04/22 09:41:58;;;;;;;4.18;1.35;;;;;;;19.30;48.20;95950.50;2080423;28;20198;-62
2023/04/22 09:43:05;;;;;;;2.15;1.23;;;;;;;19.13;48.53;95950.22;2080204;28;20236;-62
2023/04/22 09:44:16;;;;;;;2.13;1.35;;;;;;;18.95;48.77;95951.91;2079999;28;20224;-61
2023/04/22 09:45:31;;;;;;;7.70;1.33;;;;;;;19.21;48.58;95945.09;2080530;28;20215;-61
2023/04/22 09:46:33;;;;;;;2.75;1.25;;;;;;;19.43;47.40;95935.19;2079833;28;20201;-61
2023/04/22 09:47:35;;;;;;;1.80;1.08;;;;;;;19.67;48.08;95947.16;2080531;28;20197;-61
2023/04/22 09:48:46;;;;;;;4.03;1.60;;;;;;;19.83;48.47;95941.28;2088620;28;20207;-61
2023/04/22 09:49:48;;;;;;;2.65;1.60;;;;;;;20.04;45.14;95941.91;2088945;28;20237;-61
2023/04/22 09:50:50;;;;;;;3.00;1.35;;;;;;;20.14;45.20;95933.94;2088551;28;20228;-61
2023/04/22 09:51:57;;;;;;;3.95;1.55;;;;;;;20.00;44.70;95937.06;2088985;28;20203;-61
2023/04/22 09:53:01;;;;;;;4.63;1.65;;;;;;;20.14;44.45;95931.28;2088360;28;20215;-61
2023/04/22 09:54:07;;;;;;;2.47;1.40;;;;;;;20.14;44.67;95928.63;2089024;28;20730;-61
2023/04/22 09:55:09;;;;;;;3.60;1.17;;;;;;;19.87;45.34;95934.72;2087052;28;20304;-61
2023/04/22 09:56:10;;;;;;;2.22;1.00;;;;;;;19.99;42.46;95927.44;2088941;28;20200;-61
2023/04/22 09:57:15;;;;;;;4.18;1.50;;;;;;;19.93;43.58;95931.50;2088934;28;20192;-61
2023/04/22 09:58:18;;;;;;;9.98;1.63;;;;;;;19.91;45.33;95925.53;2088999;28;20223;-61
2023/04/22 09:59:22;;;;;;;3.13;1.52;;;;;;;20.39;45.83;95926.28;2088687;28;20204;-62
2023/04/22 10:00:27;;;;;;;1.88;1.33;;;;;;;20.63;45.79;95927.56;2079778;28;20204;-61
2023/04/22 10:01:40;;;;;;;7.38;1.65;;;;;;;20.24;43.19;95936.56;2080879;28;20197;-61
2023/04/22 10:02:41;;;;;;;3.92;1.23;;;;;;;19.92;42.58;95924.50;2087401;28;20284;-61
2023/04/22 10:03:43;;;;;;;4.15;1.17;;;;;;;19.83;43.57;95922.75;2079510;28;20216;-62
2023/04/22 10:04:46;;;;;;;5.38;1.50;;;;;;;19.80;43.42;95931.78;2080196;28;20201;-61
2023/04/22 10:05:47;;;;;;;4.70;1.75;;;;;;;19.87;42.08;95929.41;2086578;28;20220;-61
2023/04/22 10:06:49;;;;;;;3.15;1.55;;;;;;;20.07;42.60;95924.88;2088134;28;20231;-61
2023/04/22 10:07:51;;;;;;;2.00;1.20;;;;;;;20.34;43.28;95924.09;2078093;28;20260;-61
2023/04/22 10:08:53;;;;;;;4.50;1.67;;;;;;;20.31;42.21;95921.72;2080124;28;20692;-62
2023/04/22 10:09:55;;;;;;;3.75;1.45;;;;;;;20.44;42.87;95928.50;2088453;28;20207;-61
2023/04/22 10:10:57;;;;;;;7.13;1.52;;;;;;;20.49;42.87;95920.94;2088330;28;20227;-61
2023/04/22 10:11:58;;;;;;;2.67;1.33;;;;;;;20.68;42.57;95934.09;2088801;28;20199;-61
2023/04/22 10:13:01;;;;;;;1.50;1.10;;;;;;;20.77;42.45;95921.78;2086539;28;20603;-61
2023/04/22 10:14:03;;;;;;;6.50;1.45;;;;;;;20.72;41.74;95932.00;2079770;28;20201;-61
2023/04/22 10:15:06;;;;;;;3.67;1.52;;;;;;;20.73;41.00;95928.38;2080064;28;20212;-61
2023/04/22 10:16:08;;;;;;;5.32;1.40;;;;;;;20.96;39.72;95926.16;2087733;28;20686;-61
2023/04/22 10:17:12;;;;;;;3.53;1.58;;;;;;;21.07;41.44;95910.97;2088173;28;20231;-62
2023/04/22 10:18:17;;;;;;;3.17;1.40;;;;;;;21.06;41.82;95912.78;2088736;28;20192;-62
2023/04/22 10:19:21;;;;;;;2.45;1.33;;;;;;;20.84;42.19;95927.34;2088250;28;20235;-61
2023/04/22 10:20:24;;;;;;;2.72;1.05;;;;;;;20.52;42.29;95939.22;2088158;28;20203;-64
2023/04/22 10:21:28;;;;;;;5.93;1.33;;;;;;;20.52;43.16;95923.31;2088482;28;20481;-63
2023/04/22 10:22:32;;;;;;;4.65;1.20;;;;;;;20.47;43.39;95923.75;2078942;28;20228;-63
2023/04/22 10:23:34;;;;;;;2.85;1.30;;;;;;;20.64;43.38;95922.09;2079108;28;20263;-63
2023/04/22 10:24:38;;;;;;;2.65;1.48;;;;;;;20.76;42.80;95917.47;2088749;28;20227;-63
2023/04/22 10:25:40;;;;;;;3.50;1.55;;;;;;;20.70;42.33;95916.25;2086852;28;20250;-64
2023/04/22 10:26:54;;;;;;;1.80;1.10;;;;;;;21.43;42.31;95921.56;2088077;28;20654;-65
2023/04/22 10:28:03;;;;;;;4.22;1.40;;;;;;;21.67;41.61;95921.78;2079799;28;20200;-63
2023/04/22 10:29:15;;;;;;;5.63;1.50;;;;;;;21.90;41.62;95921.25;2079999;28;20682;-63
2023/04/22 10:30:27;;;;;;;6.53;1.23;;;;;;;21.43;41.41;95913.59;2087208;28;20201;-62
2023/04/22 10:31:29;;;;;;;4.32;1.60;;;;;;;21.55;42.07;95915.06;2087909;28;20323;-62
2023/04/22 10:32:32;;;;;;;4.57;1.60;;;;;;;21.77;41.32;95926.16;2088481;28;20196;-62
2023/04/22 10:33:37;;;;;;;2.90;1.40;;;;;;;21.76;40.49;95916.53;2088346;28;20212;-62
2023/04/22 10:34:40;;;;;;;4.00;1.52;;;;;;;21.72;40.02;95921.31;2087842;28;20200;-62
2023/04/22 10:36:13;;;;;;;6.47;1.50;;;;;;;21.87;40.63;95918.91;2086485;28;20227;-63
2023/04/22 10:37:20;;;;;;;9.85;1.70;;;;;;;21.73;40.52;95912.34;2088353;28;20215;-63
2023/04/22 10:38:22;;;;;;;3.97;1.20;;;;;;;21.93;40.49;95920.94;2086270;28;20203;-63
2023/04/22 10:39:25;;;;;;;10.82;1.50;;;;;;;22.33;39.94;95911.53;2088628;28;20311;-63
2023/04/22 10:40:27;;;;;;;6.75;1.33;;;;;;;22.38;39.38;95916.38;2088000;28;21033;-62
2023/04/22 10:41:31;;;;;;;9.80;1.75;;;;;;;22.04;39.60;95911.03;2070708;28;20332;-62
2023/04/22 10:42:34;;;;;;;2.80;1.10;;;;;;;22.16;40.01;95907.94;2071163;28;20198;-62
2023/04/22 10:43:46;;;;;;;5.05;1.50;;;;;;;22.20;39.79;95911.13;2086848;28;20706;-62
2023/04/22 10:45:00;;;;;;;3.30;1.40;;;;;;;22.02;40.42;95913.88;2088043;28;20239;-62
2023/04/22 10:46:03;;;;;;;2.80;1.10;;;;;;;21.71;41.16;95909.00;2086645;28;20349;-63
2023/04/22 10:47:08;;;;;;;4.32;1.38;;;;;;;21.99;42.19;95920.31;2088471;28;20196;-63
2023/04/22 10:48:11;;;;;;;3.85;1.60;;;;;;;21.73;40.13;95909.69;2086614;28;20208;-63
2023/04/22 10:49:19;;;;;;;4.22;1.45;;;;;;;21.77;40.14;95913.69;2083205;28;20203;-63
2023/04/22 10:50:25;;;;;;;2.65;1.17;;;;;;;21.83;40.27;95905.09;2079632;28;20207;-62
2023/04/22 10:51:49;;;;;;;3.67;1.80;;;;;;;22.07;40.27;95898.28;2088377;28;20224;-63
2023/04/22 10:52:56;;;;;;;6.63;1.27;;;;;;;22.43;39.61;95910.59;2087066;28;20254;-62
2023/04/22 10:54:00;;;;;;;2.83;1.50;;;;;;;22.41;39.08;95910.75;2087943;28;20200;-62
2023/04/22 10:55:03;;;;;;;5.38;1.60;;;;;;;22.13;39.69;95918.06;2076881;28;20289;-62
2023/04/22 10:56:16;;;;;;;4.22;1.58;;;;;;;22.09;39.36;95898.94;2074931;28;20229;-63
2023/04/22 10:57:23;;;;;;;3.60;1.60;;;;;;;22.10;39.45;95918.38;2088324;28;20211;-63
2023/04/22 10:58:25;;;;;;;4.05;1.20;;;;;;;22.07;40.29;95916.03;2085367;28;20192;-63
2023/04/22 10:59:27;;;;;;;5.03;1.40;;;;;;;22.50;39.90;95911.63;2088556;28;20200;-63
2023/04/22 11:00:38;;;;;;;3.38;1.35;;;;;;;23.19;39.39;95903.47;2087775;28;20228;-63
2023/04/22 11:01:59;;;;;;;4.65;1.30;;;;;;;22.91;38.85;95895.75;2087434;28;20192;-63
2023/04/22 11:03:04;;;;;;;3.10;1.30;;;;;;;23.25;38.69;95910.81;2086904;28;20200;-63
2023/04/22 11:04:22;;;;;;;4.78;1.17;;;;;;;22.78;39.75;95901.56;2088524;28;20226;-63
2023/04/22 11:05:26;;;;;;;2.22;1.30;;;;;;;22.55;40.53;95909.31;2084587;28;20196;-63
2023/04/22 11:06:29;;;;;;;4.35;1.38;;;;;;;22.78;41.52;95903.41;2088167;28;20203;-63
2023/04/22 11:07:33;;;;;;;4.78;1.50;;;;;;;23.26;40.12;95904.50;2088057;28;20245;-63
2023/04/22 11:08:35;;;;;;;3.10;1.50;;;;;;;22.83;38.26;95909.88;2085875;28;20222;-63
2023/04/22 11:09:43;;;;;;;3.05;1.35;;;;;;;23.05;37.98;95906.75;2079452;28;20806;-63
2023/04/22 11:10:48;;;;;;;8.40;1.98;;;;;;;23.23;38.37;95904.78;2079599;28;20239;-63
2023/04/22 11:11:50;;;;;;;4.78;1.30;;;;;;;23.02;38.53;95899.09;2087510;28;20197;-63
2023/04/22 11:12:52;;;;;;;6.47;1.50;;;;;;;22.50;37.75;95914.28;2088013;28;20550;-64
2023/04/22 11:13:58;;;;;;;5.43;1.23;;;;;;;22.15;38.18;95905.44;2087728;28;20208;-63
2023/04/22 11:15:16;;;;;;;6.10;1.90;;;;;;;22.20;37.75;95912.97;2085882;28;20204;-63
2023/04/22 11:16:21;;;;;;;2.30;1.30;;;;;;;22.37;38.20;95909.38;2088129;28;20220;-63
2023/04/22 11:17:23;;;;;;;2.50;1.40;;;;;;;22.60;38.35;95904.34;2088419;28;20212;-63
2023/04/22 11:18:26;;;;;;;10.27;1.52;;;;;;;22.81;37.92;95911.03;2088250;28;20561;-63
2023/04/22 11:19:28;;;;;;;4.68;1.25;;;;;;;22.32;38.41;95907.19;2087462;28;20242;-63
2023/04/22 11:20:30;;;;;;;4.97;1.65;;;;;;;21.68;38.97;95912.00;2085399;28;20281;-63
2023/04/22 11:21:32;;;;;;;2.80;1.60;;;;;;;21.61;39.47;95910.94;2079342;28;20193;-63
2023/04/22 11:22:40;;;;;;;5.32;1.38;;;;;;;21.54;39.40;95911.50;2079717;28;20288;-64
2023/04/22 11:23:52;;;;;;;3.25;1.70;;;;;;;21.34;39.56;95907.38;2087831;28;20212;-63
2023/04/22 11:24:55;;;;;;;2.75;1.52;;;;;;;21.43;39.77;95906.44;2087058;28;20192;-63
2023/04/22 11:25:59;;;;;;;3.40;1.45;;;;;;;21.28;39.78;95908.00;2085367;28;20220;-63
2023/04/22 11:27:01;;;;;;;2.78;1.25;;;;;;;21.63;40.79;95901.00;2087182;28;20616;-63
2023/04/22 11:28:04;;;;;;;3.10;1.40;;;;;;;21.88;39.15;95903.78;2079243;28;20226;-63
2023/04/22 11:29:07;;;;;;;7.45;1.80;;;;;;;21.78;39.66;95906.59;2077886;28;20224;-64
2023/04/22 11:30:19;;;;;;;3.95;1.60;;;;;;;21.68;39.90;95912.00;2086291;28;20226;-63
2023/04/22 11:31:21;;;;;;;4.38;1.40;;;;;;;21.66;39.91;95890.03;2086985;28;20227;-64
2023/04/22 11:32:23;;;;;;;8.40;1.60;;;;;;;21.86;41.40;95901.31;2078977;28;20426;-64
2023/04/22 11:33:25;;;;;;;3.35;1.40;;;;;;;21.62;41.25;95900.19;2078725;28;20196;-64
2023/04/22 11:34:28;;;;;;;3.92;2.05;;;;;;;21.49;41.48;95902.34;2088261;28;20192;-63
2023/04/22 11:35:32;;;;;;;7.93;1.80;;;;;;;21.38;41.92;95906.09;2085766;28;20204;-63
2023/04/22 11:36:34;;;;;;;5.32;1.65;;;;;;;20.96;41.82;95915.53;2087635;28;20284;-63
2023/04/22 11:37:41;;;;;;;7.75;1.80;;;;;;;20.75;42.18;95899.03;2087919;28;20254;-63
2023/04/22 11:38:56;;;;;;;4.10;1.80;;;;;;;20.78;42.86;95906.72;2087843;28;20196;-63
2023/04/22 11:40:00;;;;;;;3.90;1.60;;;;;;;20.84;42.63;95891.03;2087808;28;20672;-63
2023/04/22 11:41:22;;;;;;;2.67;1.20;;;;;;;20.74;42.37;95905.34;2087577;28;20262;-63
2023/04/22 11:42:24;;;;;;;2.70;1.30;;;;;;;20.66;43.11;95896.28;2087992;28;20605;-62
2023/04/22 11:43:26;;;;;;;5.45;2.08;;;;;;;20.60;41.77;95891.56;2088317;28;20283;-63
2023/04/22 11:44:28;;;;;;;5.55;2.28;;;;;;;20.69;42.28;95898.63;2086582;28;20283;-63
2023/04/22 11:45:34;;;;;;;4.18;1.55;;;;;;;20.71;41.81;95896.69;2087819;28;20201;-62
2023/04/22 11:46:39;;;;;;;6.72;1.80;;;;;;;20.80;42.09;95896.78;2087194;28;20291;-63
2023/04/22 11:47:44;;;;;;;2.70;1.40;;;;;;;21.12;42.81;95895.44;2087281;28;20207;-63
2023/04/22 11:48:46;;;;;;;3.92;1.58;;;;;;;21.62;41.74;95896.66;2087083;28;20337;-63
2023/04/22 11:49:56;;;;;;;5.63;1.80;;;;;;;21.40;41.37;95896.16;2087399;28;20242;-63
2023/04/22 11:51:11;;;;;;;4.75;1.35;;;;;;;22.18;41.58;95902.47;2078577;28;20225;-63
2023/04/22 11:52:13;;;;;;;2.00;1.40;;;;;;;21.85;42.35;95895.16;2081276;28;20232;-63
2023/04/22 11:53:18;;;;;;;5.20;1.67;;;;;;;22.15;42.60;95892.97;2087798;28;20250;-63
2023/04/22 11:54:37;;;;;;;3.95;1.10;;;;;;;21.74;42.12;95895.44;2079148;28;20209;-63
2023/04/22 11:55:40;;;;;;;2.42;1.45;;;;;;;21.59;42.32;95899.66;2080714;28;20216;-63
2023/04/22 11:56:41;;;;;;;3.65;1.60;;;;;;;22.05;40.91;95902.09;2088117;28;21241;-63
2023/04/22 11:57:44;;;;;;;9.85;2.08;;;;;;;22.10;40.51;95900.59;2088239;28;20310;-63
2023/04/22 11:58:46;;;;;;;3.85;1.60;;;;;;;21.89;42.11;95903.66;2088080;28;20196;-63
2023/04/22 11:59:58;;;;;;;2.53;1.40;;;;;;;22.44;41.49;95902.44;2088150;28;20193;-63
2023/04/22 12:01:00;;;;;;;2.80;1.30;;;;;;;22.62;40.40;95906.84;2085756;28;20310;-63
2023/04/22 12:02:05;;;;;;;8.35;1.85;;;;;;;22.19;39.44;95909.44;2088174;28;20196;-63
2023/04/22 12:03:17;;;;;;;4.15;1.45;;;;;;;22.49;38.69;95908.13;2087667;28;20748;-63
2023/04/22 12:04:21;;;;;;;3.60;1.38;;;;;;;22.00;37.94;95913.19;2085835;28;20674;-62
2023/04/22 12:05:35;;;;;;;3.33;1.48;;;;;;;21.65;38.49;95901.69;2086730;28;20200;-62
2023/04/22 12:06:40;;;;;;;6.53;2.35;;;;;;;21.72;38.30;95915.16;2088038;28;20203;-62
2023/04/22 12:07:42;;;;;;;4.75;1.45;;;;;;;21.42;37.95;95914.56;2087960;28;20250;-63
2023/04/22 12:08:46;;;;;;;3.03;1.50;;;;;;;21.37;38.09;95910.56;2086919;28;20201;-63
2023/04/22 12:09:53;;;;;;;2.50;1.33;;;;;;;21.71;38.06;95911.66;2087830;28;20287;-63
2023/04/22 12:10:57;;;;;;;3.10;1.50;;;;;;;21.67;37.37;95916.47;2086364;28;20216;-63
2023/04/22 12:12:03;;;;;;;4.75;1.70;;;;;;;22.06;36.35;95914.38;2078710;28;20291;-63
2023/04/22 12:13:05;;;;;;;4.32;1.80;;;;;;;21.99;36.75;95911.50;2078910;28;20193;-63